sensor_id;sensor_type;location;lat;lon;timestamp;temperature;humidity
20446;DHT22;10382;49.140;9.234;2023-04-03T00:00:21;6.10;99.90
20446;DHT22;10382;49.140;9.234;2023-04-03T00:02:48;6.10;99.90
20446;DHT22;10382;49.140;9.234;2023-04-03T00:05:15;6.20;99.90
20446;DHT22;10382;49.140;9.234;2023-04-03T00:07:42;6.20;99.90
20446;DHT22;10382;49.140;9.234;2023-04-03T00:10:09;6.20;99.90
20446;DHT22;10382;49.140;9.234;2023-04-03T00:12:37;6.20;99.90
20446;DHT22;10382;49.140;9.234;2023-04-03T00:15:05;6.30;99.90
20446;DHT22;10382;49.140;9.234;2023-04-03T00:17:32;6.40;99.90
20446;DHT22;10382;49.140;9.234;2023-04-03T00:19:59;6.40;99.90
20446;DHT22;10382;49.140;9.234;2023-04-03T00:22:26;6.50;99.90
20446;DHT22;10382;49.140;9.234;2023-04-03T00:24:54;6.50;99.90
20446;DHT22;10382;49.140;9.234;2023-04-03T00:27:21;6.50;99.90
20446;DHT22;10382;49.140;9.234;2023-04-03T00:29:49;6.50;99.90
20446;DHT22;10382;49.140;9.234;2023-04-03T00:32:16;6.50;99.90
20446;DHT22;10382;49.140;9.234;2023-04-03T00:34:43;6.50;99.90
20446;DHT22;10382;49.140;9.234;2023-04-03T00:37:10;6.40;99.90
20446;DHT22;10382;49.140;9.234;2023-04-03T00:39:37;6.50;99.90
20446;DHT22;10382;49.140;9.234;2023-04-03T00:42:04;6.50;99.90
20446;DHT22;10382;49.140;9.234;2023-04-03T00:47:37;6.60;99.90
20446;DHT22;10382;49.140;9.234;2023-04-03T00:50:06;6.60;99.90
20446;DHT22;10382;49.140;9.234;2023-04-03T00:52:33;6.70;99.90
20446;DHT22;10382;49.140;9.234;2023-04-03T00:55:03;6.70;99.90
20446;DHT22;10382;49.140;9.234;2023-04-03T00:57:31;6.70;99.90
20446;DHT22;10382;49.140;9.234;2023-04-03T01:00:03;6.70;99.90
20446;DHT22;10382;49.140;9.234;2023-04-03T01:02:31;6.70;99.90
20446;DHT22;10382;49.140;9.234;2023-04-03T01:04:59;6.60;99.90
20446;DHT22;10382;49.140;9.234;2023-04-03T01:07:30;6.50;99.90
20446;DHT22;10382;49.140;9.234;2023-04-03T01:10:00;6.30;99.90
20446;DHT22;10382;49.140;9.234;2023-04-03T01:12:29;6.30;99.90
20446;DHT22;10382;49.140;9.234;2023-04-03T01:14:57;6.30;99.90
20446;DHT22;10382;49.140;9.234;2023-04-03T01:17:30;6.30;99.90
20446;DHT22;10382;49.140;9.234;2023-04-03T01:22:57;6.20;99.90
20446;DHT22;10382;49.140;9.234;2023-04-03T01:25:26;6.20;99.90
20446;DHT22;10382;49.140;9.234;2023-04-03T01:27:53;6.30;99.90
20446;DHT22;10382;49.140;9.234;2023-04-03T01:30:25;6.40;99.90
20446;DHT22;10382;49.140;9.234;2023-04-03T01:32:54;6.50;99.90
20446;DHT22;10382;49.140;9.234;2023-04-03T01:35:21;6.50;99.90
20446;DHT22;10382;49.140;9.234;2023-04-03T01:37:48;6.60;99.90
20446;DHT22;10382;49.140;9.234;2023-04-03T01:40:15;6.60;99.90
20446;DHT22;10382;49.140;9.234;2023-04-03T01:42:41;6.70;99.90
20446;DHT22;10382;49.140;9.234;2023-04-03T01:45:09;6.80;99.90
20446;DHT22;10382;49.140;9.234;2023-04-03T01:47:36;6.80;99.90
20446;DHT22;10382;49.140;9.234;2023-04-03T01:50:05;6.80;99.90
20446;DHT22;10382;49.140;9.234;2023-04-03T01:52:32;6.90;99.90
20446;DHT22;10382;49.140;9.234;2023-04-03T01:54:58;6.90;99.90
20446;DHT22;10382;49.140;9.234;2023-04-03T01:57:25;7.00;99.90
20446;DHT22;10382;49.140;9.234;2023-04-03T01:59:52;7.00;99.90
20446;DHT22;10382;49.140;9.234;2023-04-03T02:02:19;7.10;99.90
20446;DHT22;10382;49.140;9.234;2023-04-03T02:04:46;7.20;99.90
20446;DHT22;10382;49.140;9.234;2023-04-03T02:07:14;7.10;99.90
20446;DHT22;10382;49.140;9.234;2023-04-03T02:09:41;7.10;99.90
20446;DHT22;10382;49.140;9.234;2023-04-03T02:12:08;6.90;99.90
20446;DHT22;10382;49.140;9.234;2023-04-03T02:14:35;6.90;99.90
20446;DHT22;10382;49.140;9.234;2023-04-03T02:17:02;6.80;99.90
20446;DHT22;10382;49.140;9.234;2023-04-03T02:19:33;6.70;99.90
20446;DHT22;10382;49.140;9.234;2023-04-03T02:22:00;6.70;99.90
20446;DHT22;10382;49.140;9.234;2023-04-03T02:24:29;6.80;99.90
20446;DHT22;10382;49.140;9.234;2023-04-03T02:26:55;6.80;99.90
20446;DHT22;10382;49.140;9.234;2023-04-03T02:29:22;6.90;99.90
20446;DHT22;10382;49.140;9.234;2023-04-03T02:31:50;6.90;99.90
20446;DHT22;10382;49.140;9.234;2023-04-03T02:34:17;6.80;99.90
20446;DHT22;10382;49.140;9.234;2023-04-03T02:36:43;6.80;99.90
20446;DHT22;10382;49.140;9.234;2023-04-03T02:39:10;6.80;99.90
20446;DHT22;10382;49.140;9.234;2023-04-03T02:41:39;6.80;99.90
20446;DHT22;10382;49.140;9.234;2023-04-03T02:44:06;6.70;99.90
20446;DHT22;10382;49.140;9.234;2023-04-03T02:46:33;6.80;99.90
20446;DHT22;10382;49.140;9.234;2023-04-03T02:49:00;6.70;99.90
20446;DHT22;10382;49.140;9.234;2023-04-03T02:51:27;6.80;99.90
20446;DHT22;10382;49.140;9.234;2023-04-03T02:53:54;6.90;99.90
20446;DHT22;10382;49.140;9.234;2023-04-03T02:56:21;6.90;99.90
20446;DHT22;10382;49.140;9.234;2023-04-03T02:58:49;6.90;99.90
20446;DHT22;10382;49.140;9.234;2023-04-03T03:01:16;7.00;99.90
20446;DHT22;10382;49.140;9.234;2023-04-03T03:03:43;7.10;99.90
20446;DHT22;10382;49.140;9.234;2023-04-03T03:06:12;6.90;99.90
20446;DHT22;10382;49.140;9.234;2023-04-03T03:08:40;6.90;99.90
20446;DHT22;10382;49.140;9.234;2023-04-03T03:11:07;7.00;99.90
20446;DHT22;10382;49.140;9.234;2023-04-03T03:13:34;7.00;99.90
20446;DHT22;10382;49.140;9.234;2023-04-03T03:16:03;7.00;99.90
20446;DHT22;10382;49.140;9.234;2023-04-03T03:18:30;7.10;99.90
20446;DHT22;10382;49.140;9.234;2023-04-03T03:20:58;7.00;99.90
20446;DHT22;10382;49.140;9.234;2023-04-03T03:23:27;7.00;99.90
20446;DHT22;10382;49.140;9.234;2023-04-03T03:25:56;7.00;99.90
20446;DHT22;10382;49.140;9.234;2023-04-03T03:28:22;6.90;99.90
20446;DHT22;10382;49.140;9.234;2023-04-03T03:30:49;6.90;99.90
20446;DHT22;10382;49.140;9.234;2023-04-03T03:33:18;6.90;99.90
20446;DHT22;10382;49.140;9.234;2023-04-03T03:35:45;6.90;99.90
20446;DHT22;10382;49.140;9.234;2023-04-03T03:38:12;6.90;99.90
20446;DHT22;10382;49.140;9.234;2023-04-03T03:40:39;6.80;99.90
20446;DHT22;10382;49.140;9.234;2023-04-03T03:43:06;6.80;99.90
20446;DHT22;10382;49.140;9.234;2023-04-03T03:45:33;6.70;99.90
20446;DHT22;10382;49.140;9.234;2023-04-03T03:48:00;6.70;99.90
20446;DHT22;10382;49.140;9.234;2023-04-03T03:50:28;6.70;99.90
20446;DHT22;10382;49.140;9.234;2023-04-03T03:52:55;6.60;99.90
20446;DHT22;10382;49.140;9.234;2023-04-03T03:55:21;6.60;99.90
20446;DHT22;10382;49.140;9.234;2023-04-03T03:57:48;6.60;99.90
20446;DHT22;10382;49.140;9.234;2023-04-03T04:00:15;6.50;99.90
20446;DHT22;10382;49.140;9.234;2023-04-03T04:02:43;6.30;99.90
20446;DHT22;10382;49.140;9.234;2023-04-03T04:05:10;6.20;99.90
20446;DHT22;10382;49.140;9.234;2023-04-03T04:07:38;6.00;99.90
20446;DHT22;10382;49.140;9.234;2023-04-03T04:10:06;5.80;99.90
20446;DHT22;10382;49.140;9.234;2023-04-03T04:12:33;5.70;99.90
20446;DHT22;10382;49.140;9.234;2023-04-03T04:15:01;5.60;99.90
20446;DHT22;10382;49.140;9.234;2023-04-03T04:17:28;5.40;99.90
20446;DHT22;10382;49.140;9.234;2023-04-03T04:19:54;5.20;99.90
20446;DHT22;10382;49.140;9.234;2023-04-03T04:22:21;5.30;99.90
20446;DHT22;10382;49.140;9.234;2023-04-03T04:24:50;5.30;99.90
20446;DHT22;10382;49.140;9.234;2023-04-03T04:27:16;5.30;99.90
20446;DHT22;10382;49.140;9.234;2023-04-03T04:29:43;5.30;99.90
20446;DHT22;10382;49.140;9.234;2023-04-03T04:32:10;5.30;99.90
20446;DHT22;10382;49.140;9.234;2023-04-03T04:34:37;5.20;99.90
20446;DHT22;10382;49.140;9.234;2023-04-03T04:37:04;5.20;99.90
20446;DHT22;10382;49.140;9.234;2023-04-03T04:39:30;5.20;99.90
20446;DHT22;10382;49.140;9.234;2023-04-03T04:41:59;5.20;99.90
20446;DHT22;10382;49.140;9.234;2023-04-03T04:44:25;5.20;99.90
20446;DHT22;10382;49.140;9.234;2023-04-03T04:46:52;5.20;99.90
20446;DHT22;10382;49.140;9.234;2023-04-03T04:49:20;5.30;99.90
20446;DHT22;10382;49.140;9.234;2023-04-03T04:51:46;5.40;99.90
20446;DHT22;10382;49.140;9.234;2023-04-03T04:54:13;5.40;99.90
20446;DHT22;10382;49.140;9.234;2023-04-03T04:56:40;5.50;99.90
20446;DHT22;10382;49.140;9.234;2023-04-03T04:59:08;5.60;99.90
20446;DHT22;10382;49.140;9.234;2023-04-03T05:01:35;5.70;99.90
20446;DHT22;10382;49.140;9.234;2023-04-03T05:04:02;5.70;99.90
20446;DHT22;10382;49.140;9.234;2023-04-03T05:06:29;5.80;99.90
20446;DHT22;10382;49.140;9.234;2023-04-03T05:08:57;5.90;99.90
20446;DHT22;10382;49.140;9.234;2023-04-03T05:11:24;6.00;99.90
20446;DHT22;10382;49.140;9.234;2023-04-03T05:13:51;6.00;99.90
20446;DHT22;10382;49.140;9.234;2023-04-03T05:16:19;6.00;99.90
20446;DHT22;10382;49.140;9.234;2023-04-03T05:18:46;6.00;99.90
20446;DHT22;10382;49.140;9.234;2023-04-03T05:21:13;6.10;99.90
20446;DHT22;10382;49.140;9.234;2023-04-03T05:23:40;6.10;99.90
20446;DHT22;10382;49.140;9.234;2023-04-03T05:26:07;6.20;99.90
20446;DHT22;10382;49.140;9.234;2023-04-03T05:28:33;6.20;99.90
20446;DHT22;10382;49.140;9.234;2023-04-03T05:31:00;6.20;99.90
20446;DHT22;10382;49.140;9.234;2023-04-03T05:33:29;6.20;99.90
20446;DHT22;10382;49.140;9.234;2023-04-03T05:35:55;6.20;99.90
20446;DHT22;10382;49.140;9.234;2023-04-03T05:38:22;6.20;99.90
20446;DHT22;10382;49.140;9.234;2023-04-03T05:40:49;6.30;99.90
20446;DHT22;10382;49.140;9.234;2023-04-03T05:43:16;6.30;99.90
20446;DHT22;10382;49.140;9.234;2023-04-03T05:45:43;6.30;99.90
20446;DHT22;10382;49.140;9.234;2023-04-03T05:48:10;6.30;99.90
20446;DHT22;10382;49.140;9.234;2023-04-03T05:50:39;6.30;99.90
20446;DHT22;10382;49.140;9.234;2023-04-03T05:53:10;6.30;99.90
20446;DHT22;10382;49.140;9.234;2023-04-03T05:55:39;6.30;99.90
20446;DHT22;10382;49.140;9.234;2023-04-03T05:58:05;6.30;99.90
20446;DHT22;10382;49.140;9.234;2023-04-03T06:00:32;6.40;99.90
20446;DHT22;10382;49.140;9.234;2023-04-03T06:02:59;6.40;99.90
20446;DHT22;10382;49.140;9.234;2023-04-03T06:05:26;6.50;99.90
20446;DHT22;10382;49.140;9.234;2023-04-03T06:07:54;6.50;99.90
20446;DHT22;10382;49.140;9.234;2023-04-03T06:10:22;6.60;99.90
20446;DHT22;10382;49.140;9.234;2023-04-03T06:12:49;6.70;99.90
20446;DHT22;10382;49.140;9.234;2023-04-03T06:15:16;6.60;99.90
20446;DHT22;10382;49.140;9.234;2023-04-03T06:17:43;6.70;99.90
20446;DHT22;10382;49.140;9.234;2023-04-03T06:20:11;6.80;99.90
20446;DHT22;10382;49.140;9.234;2023-04-03T06:22:38;6.80;99.90
20446;DHT22;10382;49.140;9.234;2023-04-03T06:25:09;6.80;99.90
20446;DHT22;10382;49.140;9.234;2023-04-03T06:27:36;6.80;99.90
20446;DHT22;10382;49.140;9.234;2023-04-03T06:30:04;6.80;99.90
20446;DHT22;10382;49.140;9.234;2023-04-03T06:32:32;7.00;99.90
20446;DHT22;10382;49.140;9.234;2023-04-03T06:34:58;7.40;99.90
20446;DHT22;10382;49.140;9.234;2023-04-03T06:37:25;7.80;99.90
20446;DHT22;10382;49.140;9.234;2023-04-03T06:39:54;8.10;99.90
20446;DHT22;10382;49.140;9.234;2023-04-03T06:42:23;8.30;99.90
20446;DHT22;10382;49.140;9.234;2023-04-03T06:44:50;8.00;99.90
20446;DHT22;10382;49.140;9.234;2023-04-03T06:47:17;7.30;99.90
20446;DHT22;10382;49.140;9.234;2023-04-03T06:49:44;7.10;99.90
20446;DHT22;10382;49.140;9.234;2023-04-03T06:52:11;7.10;99.90
20446;DHT22;10382;49.140;9.234;2023-04-03T06:54:38;7.20;99.90
20446;DHT22;10382;49.140;9.234;2023-04-03T06:57:05;7.70;99.90
20446;DHT22;10382;49.140;9.234;2023-04-03T06:59:34;8.10;99.90
20446;DHT22;10382;49.140;9.234;2023-04-03T07:02:00;7.90;99.90
20446;DHT22;10382;49.140;9.234;2023-04-03T07:04:27;7.80;99.90
20446;DHT22;10382;49.140;9.234;2023-04-03T07:06:54;7.60;99.90
20446;DHT22;10382;49.140;9.234;2023-04-03T07:09:21;7.30;99.90
20446;DHT22;10382;49.140;9.234;2023-04-03T07:11:48;7.30;99.90
20446;DHT22;10382;49.140;9.234;2023-04-03T07:14:15;7.30;99.90
20446;DHT22;10382;49.140;9.234;2023-04-03T07:16:43;7.40;99.90
20446;DHT22;10382;49.140;9.234;2023-04-03T07:19:10;7.30;99.90
20446;DHT22;10382;49.140;9.234;2023-04-03T07:21:37;6.70;99.90
20446;DHT22;10382;49.140;9.234;2023-04-03T07:24:04;6.40;99.90
20446;DHT22;10382;49.140;9.234;2023-04-03T07:26:31;6.50;99.90
20446;DHT22;10382;49.140;9.234;2023-04-03T07:28:58;6.50;99.90
20446;DHT22;10382;49.140;9.234;2023-04-03T07:31:25;6.60;99.90
20446;DHT22;10382;49.140;9.234;2023-04-03T07:33:53;6.70;99.90
20446;DHT22;10382;49.140;9.234;2023-04-03T07:36:22;6.90;99.90
20446;DHT22;10382;49.140;9.234;2023-04-03T07:38:49;7.20;99.90
20446;DHT22;10382;49.140;9.234;2023-04-03T07:41:18;7.40;99.90
20446;DHT22;10382;49.140;9.234;2023-04-03T07:43:47;7.40;99.90
20446;DHT22;10382;49.140;9.234;2023-04-03T07:46:15;7.40;99.90
20446;DHT22;10382;49.140;9.234;2023-04-03T07:48:43;7.60;99.90
20446;DHT22;10382;49.140;9.234;2023-04-03T07:51:12;8.00;99.90
20446;DHT22;10382;49.140;9.234;2023-04-03T07:53:40;8.30;99.90
20446;DHT22;10382;49.140;9.234;2023-04-03T07:56:07;8.60;99.90
20446;DHT22;10382;49.140;9.234;2023-04-03T07:58:35;8.80;99.90
20446;DHT22;10382;49.140;9.234;2023-04-03T08:01:02;8.90;99.90
20446;DHT22;10382;49.140;9.234;2023-04-03T08:03:29;9.10;99.90
20446;DHT22;10382;49.140;9.234;2023-04-03T08:06:02;9.60;99.90
20446;DHT22;10382;49.140;9.234;2023-04-03T08:08:31;10.20;99.90
20446;DHT22;10382;49.140;9.234;2023-04-03T08:10:59;10.90;99.90
20446;DHT22;10382;49.140;9.234;2023-04-03T08:13:28;11.50;99.90
20446;DHT22;10382;49.140;9.234;2023-04-03T08:15:56;12.00;99.90
20446;DHT22;10382;49.140;9.234;2023-04-03T08:18:24;12.80;99.90
20446;DHT22;10382;49.140;9.234;2023-04-03T08:20:52;13.40;99.90
20446;DHT22;10382;49.140;9.234;2023-04-03T08:23:19;14.00;98.10
20446;DHT22;10382;49.140;9.234;2023-04-03T08:25:47;14.40;95.50
20446;DHT22;10382;49.140;9.234;2023-04-03T08:28:15;14.20;92.60
20446;DHT22;10382;49.140;9.234;2023-04-03T08:30:42;13.90;92.30
20446;DHT22;10382;49.140;9.234;2023-04-03T08:33:09;13.50;92.40
20446;DHT22;10382;49.140;9.234;2023-04-03T08:35:38;13.50;92.10
20446;DHT22;10382;49.140;9.234;2023-04-03T08:38:06;13.20;92.20
20446;DHT22;10382;49.140;9.234;2023-04-03T08:40:33;13.00;91.80
20446;DHT22;10382;49.140;9.234;2023-04-03T08:43:16;12.80;92.60
20446;DHT22;10382;49.140;9.234;2023-04-03T08:45:52;12.80;93.00
20446;DHT22;10382;49.140;9.234;2023-04-03T08:48:22;12.60;92.30
20446;DHT22;10382;49.140;9.234;2023-04-03T08:50:54;12.20;93.80
20446;DHT22;10382;49.140;9.234;2023-04-03T08:53:25;12.10;93.70
20446;DHT22;10382;49.140;9.234;2023-04-03T08:55:55;12.00;93.90
20446;DHT22;10382;49.140;9.234;2023-04-03T08:58:26;11.70;93.70
20446;DHT22;10382;49.140;9.234;2023-04-03T09:00:57;11.30;94.20
20446;DHT22;10382;49.140;9.234;2023-04-03T09:03:25;11.00;95.10
20446;DHT22;10382;49.140;9.234;2023-04-03T09:05:55;10.80;95.70
20446;DHT22;10382;49.140;9.234;2023-04-03T09:08:26;10.70;96.40
20446;DHT22;10382;49.140;9.234;2023-04-03T09:11:00;10.90;97.30
20446;DHT22;10382;49.140;9.234;2023-04-03T09:13:35;11.00;97.10
20446;DHT22;10382;49.140;9.234;2023-04-03T09:16:17;11.20;95.80
20446;DHT22;10382;49.140;9.234;2023-04-03T09:18:50;11.70;94.60
20446;DHT22;10382;49.140;9.234;2023-04-03T09:21:22;12.20;94.40
20446;DHT22;10382;49.140;9.234;2023-04-03T09:23:51;12.80;91.80
20446;DHT22;10382;49.140;9.234;2023-04-03T09:26:23;12.80;91.00
20446;DHT22;10382;49.140;9.234;2023-04-03T09:28:54;12.30;90.80
20446;DHT22;10382;49.140;9.234;2023-04-03T09:31:24;12.00;91.70
20446;DHT22;10382;49.140;9.234;2023-04-03T09:33:54;12.30;93.20
20446;DHT22;10382;49.140;9.234;2023-04-03T09:36:43;12.90;91.20
20446;DHT22;10382;49.140;9.234;2023-04-03T09:39:13;13.20;90.10
20446;DHT22;10382;49.140;9.234;2023-04-03T09:41:41;13.20;86.50
20446;DHT22;10382;49.140;9.234;2023-04-03T09:44:24;12.80;86.40
20446;DHT22;10382;49.140;9.234;2023-04-03T09:46:51;12.60;88.10
20446;DHT22;10382;49.140;9.234;2023-04-03T09:49:20;12.50;87.80
20446;DHT22;10382;49.140;9.234;2023-04-03T09:51:47;12.30;88.90
20446;DHT22;10382;49.140;9.234;2023-04-03T09:54:34;12.30;90.30
20446;DHT22;10382;49.140;9.234;2023-04-03T09:57:07;12.30;89.20
20446;DHT22;10382;49.140;9.234;2023-04-03T09:59:40;12.30;89.90
20446;DHT22;10382;49.140;9.234;2023-04-03T10:02:23;12.20;88.80
20446;DHT22;10382;49.140;9.234;2023-04-03T10:04:51;12.10;89.60
20446;DHT22;10382;49.140;9.234;2023-04-03T10:07:30;12.20;90.50
20446;DHT22;10382;49.140;9.234;2023-04-03T10:09:59;12.40;90.20
20446;DHT22;10382;49.140;9.234;2023-04-03T10:12:28;12.20;90.00
20446;DHT22;10382;49.140;9.234;2023-04-03T10:14:59;11.90;90.30
20446;DHT22;10382;49.140;9.234;2023-04-03T10:17:41;11.50;90.40
20446;DHT22;10382;49.140;9.234;2023-04-03T10:20:26;11.40;91.30
20446;DHT22;10382;49.140;9.234;2023-04-03T10:23:02;11.60;92.00
20446;DHT22;10382;49.140;9.234;2023-04-03T10:25:35;11.20;89.80
20446;DHT22;10382;49.140;9.234;2023-04-03T10:28:06;10.90;90.00
20446;DHT22;10382;49.140;9.234;2023-04-03T10:30:43;10.80;91.20
20446;DHT22;10382;49.140;9.234;2023-04-03T10:33:27;10.90;91.20
20446;DHT22;10382;49.140;9.234;2023-04-03T10:36:06;11.00;92.30
20446;DHT22;10382;49.140;9.234;2023-04-03T10:38:43;11.10;91.40
20446;DHT22;10382;49.140;9.234;2023-04-03T10:41:17;11.00;91.00
20446;DHT22;10382;49.140;9.234;2023-04-03T10:43:52;11.10;91.00
20446;DHT22;10382;49.140;9.234;2023-04-03T10:46:26;10.90;86.80
20446;DHT22;10382;49.140;9.234;2023-04-03T10:49:19;10.60;90.40
20446;DHT22;10382;49.140;9.234;2023-04-03T10:51:49;10.40;90.10
20446;DHT22;10382;49.140;9.234;2023-04-03T10:54:21;9.80;91.40
20446;DHT22;10382;49.140;9.234;2023-04-03T10:56:54;9.80;92.70
20446;DHT22;10382;49.140;9.234;2023-04-03T10:59:26;9.70;92.50
20446;DHT22;10382;49.140;9.234;2023-04-03T11:02:00;9.70;92.50
20446;DHT22;10382;49.140;9.234;2023-04-03T11:04:31;9.50;93.20
20446;DHT22;10382;49.140;9.234;2023-04-03T11:07:02;9.50;93.30
20446;DHT22;10382;49.140;9.234;2023-04-03T11:09:34;9.50;93.40
20446;DHT22;10382;49.140;9.234;2023-04-03T11:12:06;9.60;92.00
20446;DHT22;10382;49.140;9.234;2023-04-03T11:14:38;9.60;91.50
20446;DHT22;10382;49.140;9.234;2023-04-03T11:17:15;9.40;90.70
20446;DHT22;10382;49.140;9.234;2023-04-03T11:19:48;9.30;91.70
20446;DHT22;10382;49.140;9.234;2023-04-03T11:22:23;9.40;92.30
20446;DHT22;10382;49.140;9.234;2023-04-03T11:24:58;9.20;89.40
20446;DHT22;10382;49.140;9.234;2023-04-03T11:27:40;9.00;88.70
20446;DHT22;10382;49.140;9.234;2023-04-03T11:30:14;9.10;88.10
20446;DHT22;10382;49.140;9.234;2023-04-03T11:35:45;9.70;88.60
20446;DHT22;10382;49.140;9.234;2023-04-03T11:38:19;10.90;85.10
20446;DHT22;10382;49.140;9.234;2023-04-03T11:40:49;11.60;83.50
20446;DHT22;10382;49.140;9.234;2023-04-03T11:43:23;11.80;83.00
20446;DHT22;10382;49.140;9.234;2023-04-03T11:45:57;11.60;84.90
20446;DHT22;10382;49.140;9.234;2023-04-03T11:48:51;11.40;84.40
20446;DHT22;10382;49.140;9.234;2023-04-03T11:51:51;11.20;83.80
20446;DHT22;10382;49.140;9.234;2023-04-03T11:54:45;11.10;81.20
20446;DHT22;10382;49.140;9.234;2023-04-03T11:57:44;11.10;82.30
20446;DHT22;10382;49.140;9.234;2023-04-03T12:00:45;10.80;82.20
20446;DHT22;10382;49.140;9.234;2023-04-03T12:12:29;9.90;84.00
20446;DHT22;10382;49.140;9.234;2023-04-03T12:17:53;10.70;81.90
20446;DHT22;10382;49.140;9.234;2023-04-03T12:23:31;11.20;81.20
20446;DHT22;10382;49.140;9.234;2023-04-03T12:28:59;11.10;78.70
20446;DHT22;10382;49.140;9.234;2023-04-03T12:31:38;12.60;76.40
20446;DHT22;10382;49.140;9.234;2023-04-03T12:34:24;13.60;75.10
20446;DHT22;10382;49.140;9.234;2023-04-03T12:37:00;13.80;71.80
20446;DHT22;10382;49.140;9.234;2023-04-03T12:39:54;13.60;68.00
20446;DHT22;10382;49.140;9.234;2023-04-03T12:42:39;12.90;65.40
20446;DHT22;10382;49.140;9.234;2023-04-03T12:45:16;12.80;68.00
20446;DHT22;10382;49.140;9.234;2023-04-03T12:47:45;12.90;68.10
20446;DHT22;10382;49.140;9.234;2023-04-03T12:50:21;12.90;65.60
20446;DHT22;10382;49.140;9.234;2023-04-03T12:52:54;12.80;65.60
20446;DHT22;10382;49.140;9.234;2023-04-03T12:55:23;12.30;65.40
20446;DHT22;10382;49.140;9.234;2023-04-03T12:57:50;11.70;65.60
20446;DHT22;10382;49.140;9.234;2023-04-03T13:00:31;11.50;67.50
20446;DHT22;10382;49.140;9.234;2023-04-03T13:03:00;11.50;69.70
20446;DHT22;10382;49.140;9.234;2023-04-03T13:05:28;11.40;67.00
20446;DHT22;10382;49.140;9.234;2023-04-03T13:07:58;11.30;67.90
20446;DHT22;10382;49.140;9.234;2023-04-03T13:10:27;11.30;68.30
20446;DHT22;10382;49.140;9.234;2023-04-03T13:12:55;11.30;66.60
20446;DHT22;10382;49.140;9.234;2023-04-03T13:15:24;11.40;66.70
20446;DHT22;10382;49.140;9.234;2023-04-03T13:17:53;11.40;64.10
20446;DHT22;10382;49.140;9.234;2023-04-03T13:20:24;11.50;64.40
20446;DHT22;10382;49.140;9.234;2023-04-03T13:22:55;11.50;64.10
20446;DHT22;10382;49.140;9.234;2023-04-03T13:25:24;11.60;62.30
20446;DHT22;10382;49.140;9.234;2023-04-03T13:27:52;11.80;64.00
20446;DHT22;10382;49.140;9.234;2023-04-03T13:30:23;11.70;65.10
20446;DHT22;10382;49.140;9.234;2023-04-03T13:32:52;11.70;64.40
20446;DHT22;10382;49.140;9.234;2023-04-03T13:35:35;11.30;62.80
20446;DHT22;10382;49.140;9.234;2023-04-03T13:38:06;10.60;65.00
20446;DHT22;10382;49.140;9.234;2023-04-03T13:40:33;10.60;65.90
20446;DHT22;10382;49.140;9.234;2023-04-03T13:43:04;10.90;65.80
20446;DHT22;10382;49.140;9.234;2023-04-03T13:45:32;11.50;64.00
20446;DHT22;10382;49.140;9.234;2023-04-03T13:48:15;12.20;62.90
20446;DHT22;10382;49.140;9.234;2023-04-03T13:50:56;12.60;60.80
20446;DHT22;10382;49.140;9.234;2023-04-03T13:53:23;11.90;56.40
20446;DHT22;10382;49.140;9.234;2023-04-03T13:55:57;11.60;57.20
20446;DHT22;10382;49.140;9.234;2023-04-03T13:58:25;11.60;59.30
20446;DHT22;10382;49.140;9.234;2023-04-03T14:00:54;11.80;59.70
20446;DHT22;10382;49.140;9.234;2023-04-03T14:03:25;12.30;60.90
20446;DHT22;10382;49.140;9.234;2023-04-03T14:05:53;12.90;58.50
20446;DHT22;10382;49.140;9.234;2023-04-03T14:08:20;13.10;57.70
20446;DHT22;10382;49.140;9.234;2023-04-03T14:10:48;13.00;56.60
20446;DHT22;10382;49.140;9.234;2023-04-03T14:13:17;12.70;55.80
20446;DHT22;10382;49.140;9.234;2023-04-03T14:15:45;12.40;56.00
20446;DHT22;10382;49.140;9.234;2023-04-03T14:18:16;12.10;56.40
20446;DHT22;10382;49.140;9.234;2023-04-03T14:20:45;12.00;57.40
20446;DHT22;10382;49.140;9.234;2023-04-03T14:23:12;11.90;57.40
20446;DHT22;10382;49.140;9.234;2023-04-03T14:25:39;12.10;57.20
20446;DHT22;10382;49.140;9.234;2023-04-03T14:28:15;12.50;56.70
20446;DHT22;10382;49.140;9.234;2023-04-03T14:30:43;13.10;57.50
20446;DHT22;10382;49.140;9.234;2023-04-03T14:33:13;13.70;54.50
20446;DHT22;10382;49.140;9.234;2023-04-03T14:35:40;13.40;52.60
20446;DHT22;10382;49.140;9.234;2023-04-03T14:38:21;12.70;52.20
20446;DHT22;10382;49.140;9.234;2023-04-03T14:40:48;13.00;54.90
20446;DHT22;10382;49.140;9.234;2023-04-03T14:43:16;14.00;54.10
20446;DHT22;10382;49.140;9.234;2023-04-03T14:45:43;15.30;52.00
20446;DHT22;10382;49.140;9.234;2023-04-03T14:48:11;15.80;51.60
20446;DHT22;10382;49.140;9.234;2023-04-03T14:50:42;16.70;49.70
20446;DHT22;10382;49.140;9.234;2023-04-03T14:53:13;16.60;46.90
20446;DHT22;10382;49.140;9.234;2023-04-03T14:55:43;16.30;46.30
20446;DHT22;10382;49.140;9.234;2023-04-03T14:58:13;16.80;47.20
20446;DHT22;10382;49.140;9.234;2023-04-03T15:00:41;17.70;46.50
20446;DHT22;10382;49.140;9.234;2023-04-03T15:03:13;18.50;45.40
20446;DHT22;10382;49.140;9.234;2023-04-03T15:05:41;18.70;44.30
20446;DHT22;10382;49.140;9.234;2023-04-03T15:08:19;18.30;44.00
20446;DHT22;10382;49.140;9.234;2023-04-03T15:10:46;18.30;42.50
20446;DHT22;10382;49.140;9.234;2023-04-03T15:13:13;18.60;43.40
20446;DHT22;10382;49.140;9.234;2023-04-03T15:15:41;18.60;42.10
20446;DHT22;10382;49.140;9.234;2023-04-03T15:18:15;19.00;42.20
20446;DHT22;10382;49.140;9.234;2023-04-03T15:20:42;19.60;41.50
20446;DHT22;10382;49.140;9.234;2023-04-03T15:23:11;19.10;41.20
20446;DHT22;10382;49.140;9.234;2023-04-03T15:25:39;18.60;42.20
20446;DHT22;10382;49.140;9.234;2023-04-03T15:28:08;17.80;41.40
20446;DHT22;10382;49.140;9.234;2023-04-03T15:30:37;16.90;42.20
20446;DHT22;10382;49.140;9.234;2023-04-03T15:33:05;16.60;43.10
20446;DHT22;10382;49.140;9.234;2023-04-03T15:35:32;17.10;44.30
20446;DHT22;10382;49.140;9.234;2023-04-03T15:37:59;17.90;42.70
20446;DHT22;10382;49.140;9.234;2023-04-03T15:40:26;17.60;42.40
20446;DHT22;10382;49.140;9.234;2023-04-03T15:42:54;16.90;41.50
20446;DHT22;10382;49.140;9.234;2023-04-03T15:45:21;15.50;41.90
20446;DHT22;10382;49.140;9.234;2023-04-03T15:47:48;14.90;43.80
20446;DHT22;10382;49.140;9.234;2023-04-03T15:50:15;14.50;44.80
20446;DHT22;10382;49.140;9.234;2023-04-03T15:52:42;14.20;44.60
20446;DHT22;10382;49.140;9.234;2023-04-03T15:55:09;13.90;45.40
20446;DHT22;10382;49.140;9.234;2023-04-03T15:57:36;14.10;45.30
20446;DHT22;10382;49.140;9.234;2023-04-03T16:00:05;14.50;44.80
20446;DHT22;10382;49.140;9.234;2023-04-03T16:02:33;15.20;44.70
20446;DHT22;10382;49.140;9.234;2023-04-03T16:05:01;15.90;44.10
20446;DHT22;10382;49.140;9.234;2023-04-03T16:07:28;15.90;42.80
20446;DHT22;10382;49.140;9.234;2023-04-03T16:09:55;15.40;43.60
20446;DHT22;10382;49.140;9.234;2023-04-03T16:12:22;15.80;44.10
20446;DHT22;10382;49.140;9.234;2023-04-03T16:14:48;16.00;43.20
20446;DHT22;10382;49.140;9.234;2023-04-03T16:17:17;15.90;43.20
20446;DHT22;10382;49.140;9.234;2023-04-03T16:19:44;15.90;42.90
20446;DHT22;10382;49.140;9.234;2023-04-03T16:22:11;15.90;43.20